createdAt,value
2023-01-11T00:01:23.969Z,99.28
2023-01-11T00:03:53.136Z,99.41
2023-01-11T00:06:21.926Z,99.39
2023-01-11T00:08:50.490Z,99.31
2023-01-11T00:11:19.150Z,99.20
2023-01-11T00:13:48.093Z,99.45
2023-01-11T00:16:17.572Z,99.37
2023-01-11T00:18:46.363Z,99.58
2023-01-11T00:21:15.138Z,99.30
2023-01-11T00:23:43.757Z,99.28
2023-01-11T00:26:13.711Z,99.27
2023-01-11T00:28:42.902Z,99.02
2023-01-11T00:31:11.684Z,99.42
2023-01-11T00:33:40.406Z,99.59
2023-01-11T00:36:09.339Z,99.23
2023-01-11T00:38:44.044Z,99.74
2023-01-11T00:41:34.639Z,99.35
2023-01-11T00:44:23.809Z,99.71
2023-01-11T00:50:20.672Z,99.03
2023-01-11T00:52:49.391Z,98.72
2023-01-11T00:55:18.471Z,98.48
2023-01-11T00:57:49.527Z,98.48
2023-01-11T01:00:20.461Z,98.31
2023-01-11T01:02:50.124Z,98.08
2023-01-11T01:05:19.613Z,97.26
2023-01-11T01:07:48.672Z,97.32
2023-01-11T01:10:18.624Z,97.77
2023-01-11T01:13:06.440Z,97.62
2023-01-11T01:15:35.222Z,96.58
2023-01-11T01:18:04.155Z,96.02
2023-01-11T01:20:32.725Z,95.81
2023-01-11T01:23:01.570Z,95.55
2023-01-11T01:25:30.210Z,95.42
2023-01-11T01:27:58.944Z,95.65
2023-01-11T01:30:27.564Z,95.54
2023-01-11T01:32:56.218Z,95.72
2023-01-11T01:35:24.814Z,95.39
2023-01-11T01:37:53.542Z,95.34
2023-01-11T01:40:23.018Z,95.24
2023-01-11T01:42:55.630Z,94.96
2023-01-11T01:45:28.833Z,95.09
2023-01-11T01:48:02.782Z,94.92
2023-01-11T01:50:52.376Z,94.89
2023-01-11T01:53:32.059Z,94.52
2023-01-11T01:56:03.915Z,95.14
2023-01-11T01:58:49.656Z,95.47
2023-01-11T02:01:37.751Z,94.68
2023-01-11T02:04:17.888Z,94.26
2023-01-11T02:06:46.926Z,93.93
2023-01-11T02:09:33.233Z,94.09
2023-01-11T02:12:03.196Z,94.14
2023-01-11T02:14:33.068Z,93.89
2023-01-11T02:17:01.774Z,93.92
2023-01-11T02:20:06.474Z,94.28
2023-01-11T02:23:22.129Z,93.85
2023-01-11T02:26:02.733Z,93.90
2023-01-11T02:28:49.592Z,94.32
2023-01-11T02:31:56.468Z,94.32
2023-01-11T02:34:47.966Z,94.51
2023-01-11T02:37:42.733Z,94.85
2023-01-11T02:40:32.605Z,94.81
2023-01-11T02:43:44.168Z,95.31
2023-01-11T02:46:28.272Z,95.13
2023-01-11T02:49:12.866Z,95.29
2023-01-11T02:51:54.618Z,94.58
2023-01-11T02:54:25.118Z,94.36
2023-01-11T02:57:00.559Z,93.81
2023-01-11T02:59:33.834Z,93.28
2023-01-11T03:02:02.928Z,93.22
2023-01-11T03:04:38.019Z,93.53
2023-01-11T03:07:46.135Z,93.42
2023-01-11T03:10:52.527Z,93.49
2023-01-11T03:14:09.128Z,92.86
2023-01-11T03:16:54.656Z,93.34
2023-01-11T03:19:48.805Z,93.28
2023-01-11T03:22:37.275Z,93.69
2023-01-11T03:25:32.481Z,93.65
2023-01-11T03:28:38.664Z,93.15
2023-01-11T03:31:40.817Z,93.20
2023-01-11T03:34:36.726Z,93.71
2023-01-11T03:37:17.752Z,93.49
2023-01-11T03:40:08.478Z,93.43
2023-01-11T03:43:02.710Z,93.33
2023-01-11T03:45:35.962Z,93.52
2023-01-11T03:48:07.412Z,93.53
2023-01-11T03:50:36.217Z,93.65
2023-01-11T03:53:08.878Z,93.60
2023-01-11T03:55:45.239Z,93.41
2023-01-11T03:58:14.769Z,93.85
2023-01-11T04:00:44.838Z,93.54
2023-01-11T04:03:14.892Z,93.54
2023-01-11T04:05:48.355Z,93.55
2023-01-11T04:08:17.045Z,93.03
2023-01-11T04:10:45.937Z,93.03
2023-01-11T04:13:14.798Z,93.04
2023-01-11T04:15:43.620Z,93.24
2023-01-11T04:18:12.347Z,93.61
2023-01-11T04:20:41.396Z,93.65
2023-01-11T04:23:10.711Z,93.89
2023-01-11T04:25:39.547Z,94.33
2023-01-11T04:28:08.342Z,94.27
2023-01-11T04:30:37.402Z,93.41
2023-01-11T04:33:06.357Z,94.24
2023-01-11T04:35:35.194Z,94.19
2023-01-11T04:38:04.300Z,93.90
2023-01-11T04:40:33.081Z,93.94
2023-01-11T04:43:02.544Z,93.69
2023-01-11T04:45:31.360Z,93.45
2023-01-11T04:48:00.097Z,93.16
2023-01-11T04:50:28.888Z,93.00
2023-01-11T04:52:59.903Z,92.41
2023-01-11T04:55:28.993Z,92.25
2023-01-11T04:57:58.035Z,92.07
2023-01-11T05:00:26.837Z,92.63
2023-01-11T05:02:59.750Z,92.53
2023-01-11T05:05:28.666Z,92.25
2023-01-11T05:07:57.499Z,91.64
2023-01-11T05:10:26.321Z,91.82
2023-01-11T05:12:55.383Z,91.96
2023-01-11T05:15:24.413Z,90.85
2023-01-11T05:17:53.421Z,91.42
2023-01-11T05:20:22.966Z,91.79
2023-01-11T05:22:53.366Z,91.71
2023-01-11T05:25:22.417Z,91.41
2023-01-11T05:27:51.780Z,91.76
2023-01-11T05:33:43.492Z,91.29
2023-01-11T05:36:16.653Z,90.19
2023-01-11T05:42:17.376Z,88.96
2023-01-11T05:45:05.661Z,89.03
2023-01-11T05:47:35.063Z,88.83
2023-01-11T05:50:04.503Z,89.21
2023-01-11T05:52:33.872Z,89.02
2023-01-11T05:55:02.665Z,89.03
2023-01-11T05:57:31.894Z,89.52
2023-01-11T06:00:00.913Z,89.82
2023-01-11T06:02:30.101Z,89.53
2023-01-11T06:04:59.867Z,89.75
2023-01-11T06:07:29.052Z,89.75
2023-01-11T06:09:58.011Z,89.88
2023-01-11T06:12:26.896Z,90.10
2023-01-11T06:14:55.956Z,90.31
2023-01-11T06:17:24.958Z,90.09
2023-01-11T06:19:54.004Z,89.85
2023-01-11T06:22:22.981Z,89.72
2023-01-11T06:24:51.937Z,89.55
2023-01-11T06:27:21.138Z,90.12
2023-01-11T06:29:50.432Z,89.46
2023-01-11T06:32:33.110Z,89.85
2023-01-11T06:35:01.921Z,89.47
2023-01-11T06:37:30.821Z,89.50
2023-01-11T06:39:59.777Z,90.06
2023-01-11T06:42:28.758Z,90.60
2023-01-11T06:44:57.607Z,90.49
2023-01-11T06:47:26.752Z,90.64
2023-01-11T06:49:55.458Z,90.37
2023-01-11T06:52:24.643Z,89.89
2023-01-11T06:54:53.429Z,90.20
2023-01-11T06:57:22.403Z,89.90
2023-01-11T06:59:51.240Z,90.08
2023-01-11T07:02:20.088Z,90.10
2023-01-11T07:04:48.871Z,89.74
2023-01-11T07:08:07.803Z,89.90
2023-01-11T07:10:36.808Z,89.97
2023-01-11T07:13:05.566Z,89.80
2023-01-11T07:15:35.111Z,89.59
2023-01-11T07:18:05.891Z,89.35
2023-01-11T07:20:34.568Z,89.34
2023-01-11T07:23:03.341Z,89.10
2023-01-11T07:25:32.027Z,89.05
2023-01-11T07:28:03.619Z,89.17
2023-01-11T07:30:55.355Z,89.29
2023-01-11T07:33:25.987Z,88.70
2023-01-11T07:35:55.687Z,88.52
2023-01-11T07:38:24.520Z,88.60
2023-01-11T07:40:53.193Z,88.51
2023-01-11T07:43:23.654Z,88.66
2023-01-11T07:45:53.465Z,88.40
2023-01-11T07:48:26.800Z,88.59
2023-01-11T07:50:55.976Z,88.25
2023-01-11T07:53:26.584Z,88.67
2023-01-11T07:55:56.398Z,88.69
2023-01-11T07:58:25.324Z,88.20
2023-01-11T08:00:54.304Z,88.53
2023-01-11T08:03:23.637Z,89.04
2023-01-11T08:05:52.892Z,88.71
2023-01-11T08:08:22.029Z,88.93
2023-01-11T08:11:09.500Z,88.52
2023-01-11T08:13:57.870Z,88.42
2023-01-11T08:16:29.549Z,88.29
2023-01-11T08:18:58.956Z,87.98
2023-01-11T08:21:28.499Z,88.45
2023-01-11T08:23:59.383Z,88.13
2023-01-11T08:26:28.620Z,87.95
2023-01-11T08:28:57.148Z,88.03
2023-01-11T08:31:26.479Z,88.03
2023-01-11T08:33:55.412Z,87.99
2023-01-11T08:36:26.994Z,87.78
2023-01-11T08:38:59.062Z,87.89
2023-01-11T08:41:27.745Z,87.75
2023-01-11T08:43:56.531Z,88.06
2023-01-11T08:46:26.349Z,87.98
2023-01-11T08:48:55.262Z,87.61
2023-01-11T08:51:24.060Z,87.54
2023-01-11T08:53:53.476Z,87.92
2023-01-11T08:56:22.166Z,88.21
2023-01-11T08:58:50.990Z,87.92
2023-01-11T09:04:51.602Z,87.84
2023-01-11T09:07:20.376Z,87.49
2023-01-11T09:09:49.230Z,87.38
2023-01-11T09:12:18.990Z,87.39
2023-01-11T09:14:47.525Z,87.44
2023-01-11T09:17:16.310Z,87.60
2023-01-11T09:19:45.111Z,87.23
2023-01-11T09:22:21.957Z,87.42
2023-01-11T09:24:50.741Z,87.39
2023-01-11T09:27:20.004Z,87.20
2023-01-11T09:29:48.773Z,87.55
2023-01-11T09:32:17.817Z,87.60
2023-01-11T09:34:47.410Z,87.66
2023-01-11T09:37:17.076Z,87.67
2023-01-11T09:39:51.883Z,87.13
2023-01-11T09:42:35.216Z,87.36
2023-01-11T09:45:23.647Z,87.62
2023-01-11T09:48:27.513Z,87.30
2023-01-11T09:50:57.992Z,87.38
2023-01-11T09:53:38.729Z,87.54
2023-01-11T09:56:55.150Z,87.20
2023-01-11T09:59:48.859Z,87.55
2023-01-11T10:02:54.242Z,87.48
2023-01-11T10:05:56.664Z,87.35
2023-01-11T10:18:26.165Z,87.01
2023-01-11T10:19:48.244Z,86.83
2023-01-11T10:22:23.788Z,87.01
2023-01-11T10:25:22.054Z,87.56
2023-01-11T10:28:08.081Z,87.05
2023-01-11T10:31:08.504Z,87.40
2023-01-11T10:34:18.701Z,86.77
2023-01-11T10:37:22.939Z,86.39
2023-01-11T10:40:37.814Z,86.28
2023-01-11T10:43:22.712Z,86.33
2023-01-11T10:46:09.482Z,86.56
2023-01-11T10:48:47.295Z,86.23
2023-01-11T10:51:42.281Z,86.47
2023-01-11T10:54:22.370Z,86.76
2023-01-11T10:57:13.553Z,86.53
2023-01-11T11:00:04.700Z,85.96
2023-01-11T11:02:36.301Z,86.28
2023-01-11T11:05:11.106Z,86.15
2023-01-11T11:08:01.073Z,86.27
2023-01-11T11:10:55.222Z,86.48
2023-01-11T11:13:54.070Z,86.77
2023-01-11T11:16:22.937Z,86.13
2023-01-11T11:18:54.491Z,85.88
2023-01-11T11:21:34.219Z,86.08
2023-01-11T11:24:14.586Z,86.69
2023-01-11T11:26:49.956Z,85.91
2023-01-11T11:29:29.488Z,85.34
2023-01-11T11:32:01.785Z,85.72
2023-01-11T11:34:31.241Z,85.50
2023-01-11T11:37:00.931Z,85.48
2023-01-11T11:39:32.149Z,85.92
2023-01-11T11:42:18.291Z,85.70
2023-01-11T11:45:10.831Z,85.88
2023-01-11T11:47:39.551Z,85.69
2023-01-11T11:50:42.589Z,85.93
2023-01-11T11:53:37.032Z,85.93
2023-01-11T11:56:18.844Z,86.22
2023-01-11T11:59:10.981Z,86.34
2023-01-11T12:01:48.871Z,86.24
2023-01-11T12:05:18.019Z,86.32
2023-01-11T12:07:58.425Z,86.24
2023-01-11T12:10:30.390Z,86.16
2023-01-11T12:13:04.323Z,86.22
2023-01-11T12:15:35.045Z,85.90
2023-01-11T12:18:33.077Z,85.75
2023-01-11T12:21:26.230Z,85.57
2023-01-11T12:24:19.809Z,85.75
2023-01-11T12:27:45.250Z,85.62
2023-01-11T12:30:52.685Z,85.46
2023-01-11T12:34:21.551Z,85.67
2023-01-11T12:37:32.033Z,85.91
2023-01-11T12:40:22.591Z,85.91
2023-01-11T12:43:44.314Z,85.75
2023-01-11T12:46:49.842Z,85.66
2023-01-11T12:49:48.938Z,85.74
2023-01-11T12:52:43.443Z,85.73
2023-01-11T12:55:33.957Z,85.66
2023-01-11T12:58:33.918Z,86.13
2023-01-11T13:01:15.400Z,85.74
2023-01-11T13:04:12.120Z,85.73
2023-01-11T13:06:53.952Z,86.25
2023-01-11T13:09:44.108Z,86.28
2023-01-11T13:12:27.819Z,86.09
2023-01-11T13:15:21.213Z,85.88
2023-01-11T13:17:58.019Z,86.30
2023-01-11T13:21:00.716Z,86.20
2023-01-11T13:23:59.822Z,86.46
2023-01-11T13:26:37.733Z,86.53
2023-01-11T13:29:43.161Z,86.22
2023-01-11T13:32:23.757Z,86.32
2023-01-11T13:35:02.573Z,86.05
2023-01-11T13:37:55.325Z,86.40
2023-01-11T13:40:32.536Z,86.24
2023-01-11T13:43:34.238Z,86.29
2023-01-11T13:46:10.972Z,86.37
2023-01-11T13:52:19.257Z,86.71
2023-01-11T13:55:26.398Z,85.83
2023-01-11T13:58:52.081Z,86.12
2023-01-11T14:01:47.545Z,86.07
2023-01-11T14:04:45.343Z,86.31
2023-01-11T14:07:46.057Z,86.37
2023-01-11T14:10:37.013Z,86.36
2023-01-11T14:13:40.728Z,86.84
2023-01-11T14:16:52.937Z,87.30
2023-01-11T14:19:46.630Z,87.24
2023-01-11T14:22:47.976Z,87.28
2023-01-11T14:25:42.135Z,87.32
2023-01-11T14:28:45.273Z,87.63
2023-01-11T14:32:04.667Z,87.51
2023-01-11T14:35:08.384Z,87.50
2023-01-11T14:38:14.614Z,87.49
2023-01-11T14:41:11.204Z,87.53
2023-01-11T14:44:14.088Z,87.75
2023-01-11T14:46:48.967Z,87.88
2023-01-11T14:49:33.140Z,87.93
2023-01-11T14:52:14.857Z,87.72
2023-01-11T14:54:49.544Z,88.02
2023-01-11T14:57:42.585Z,88.05
2023-01-11T15:00:20.373Z,88.19
2023-01-11T15:03:01.812Z,88.33
2023-01-11T15:05:45.371Z,88.24
2023-01-11T15:08:14.227Z,88.27
2023-01-11T15:11:07.980Z,88.88
2023-01-11T15:13:51.667Z,89.12
2023-01-11T15:16:44.531Z,89.13
2023-01-11T15:19:34.919Z,89.28
2023-01-11T15:22:06.208Z,89.18
2023-01-11T15:24:54.850Z,89.10
2023-01-11T15:27:41.779Z,89.35
2023-01-11T15:30:30.383Z,89.41
2023-01-11T15:33:17.452Z,89.43
2023-01-11T15:36:03.952Z,89.17
2023-01-11T15:39:10.727Z,89.07
2023-01-11T15:42:08.253Z,89.16
2023-01-11T15:45:33.164Z,89.33
2023-01-11T15:48:26.461Z,88.66
2023-01-11T15:51:38.865Z,88.74
2023-01-11T15:54:25.822Z,88.87
2023-01-11T15:57:07.080Z,89.10
2023-01-11T16:00:23.969Z,89.60
2023-01-11T16:03:36.193Z,89.50
2023-01-11T16:07:21.430Z,89.03
2023-01-11T16:10:09.279Z,88.95
2023-01-11T16:12:57.069Z,88.74
2023-01-11T16:15:52.265Z,88.25
2023-01-11T16:18:27.576Z,88.19
2023-01-11T16:21:08.518Z,88.45
2023-01-11T16:23:39.214Z,88.50
2023-01-11T16:26:08.773Z,88.61
2023-01-11T16:28:38.207Z,88.36
2023-01-11T16:31:07.508Z,88.42
2023-01-11T16:33:36.290Z,88.20
2023-01-11T16:36:23.887Z,88.16
2023-01-11T16:39:06.698Z,88.03
2023-01-11T16:41:53.349Z,88.27
2023-01-11T16:45:06.602Z,88.25
2023-01-11T16:47:35.082Z,88.06
2023-01-11T16:50:25.398Z,88.06
2023-01-11T16:52:59.509Z,88.28
2023-01-11T16:55:42.785Z,88.27
2023-01-11T16:58:30.998Z,88.53
2023-01-11T17:01:08.463Z,88.82
2023-01-11T17:03:58.137Z,88.53
2023-01-11T17:06:27.129Z,88.82
2023-01-11T17:09:00.146Z,89.08
2023-01-11T17:11:34.758Z,88.94
2023-01-11T17:14:30.708Z,89.07
2023-01-11T17:17:12.552Z,88.34
2023-01-11T17:19:51.693Z,88.01
2023-01-11T17:22:31.936Z,88.04
2023-01-11T17:25:05.859Z,88.35
2023-01-11T17:27:43.547Z,87.80
2023-01-11T17:30:27.122Z,87.92
2023-01-11T17:33:02.275Z,87.72
2023-01-11T17:35:37.740Z,87.80
2023-01-11T17:38:11.533Z,87.72
2023-01-11T17:40:41.017Z,87.71
2023-01-11T17:43:47.082Z,87.51
2023-01-11T17:46:27.654Z,87.46
2023-01-11T17:49:00.004Z,87.15
2023-01-11T17:51:35.245Z,87.36
2023-01-11T17:54:04.727Z,87.60
2023-01-11T17:56:42.330Z,87.28
2023-01-11T17:59:25.064Z,87.48
2023-01-11T18:02:12.671Z,87.41
2023-01-11T18:04:44.455Z,87.13
2023-01-11T18:07:19.749Z,87.60
2023-01-11T18:10:03.177Z,87.79
2023-01-11T18:16:00.819Z,87.51
2023-01-11T18:18:50.913Z,87.52
2023-01-11T18:21:29.002Z,87.02
2023-01-11T18:24:11.306Z,87.07
2023-01-11T18:26:50.592Z,86.90
2023-01-11T18:29:44.215Z,86.90
2023-01-11T18:32:16.045Z,86.54
2023-01-11T18:34:49.138Z,86.50
2023-01-11T18:37:18.857Z,86.71
2023-01-11T18:39:49.472Z,86.93
2023-01-11T18:42:24.735Z,86.80
2023-01-11T18:45:00.170Z,87.01
2023-01-11T18:47:35.619Z,86.95
2023-01-11T18:50:05.150Z,87.27
2023-01-11T18:52:37.391Z,87.53
2023-01-11T18:55:10.534Z,87.69
2023-01-11T18:57:39.884Z,87.78
2023-01-11T19:00:16.026Z,87.78
2023-01-11T19:02:46.994Z,87.43
2023-01-11T19:05:20.573Z,87.56
2023-01-11T19:07:50.313Z,87.46
2023-01-11T19:10:24.009Z,87.64
2023-01-11T19:12:58.411Z,87.82
2023-01-11T19:15:27.922Z,87.72
2023-01-11T19:17:56.955Z,87.92
2023-01-11T19:23:01.192Z,87.02
2023-01-11T19:25:30.083Z,87.19
2023-01-11T19:27:58.927Z,87.34
2023-01-11T19:30:27.798Z,87.55
2023-01-11T19:32:57.046Z,87.41
2023-01-11T19:35:26.323Z,87.52
2023-01-11T19:37:55.932Z,87.75
2023-01-11T19:40:27.838Z,87.83
2023-01-11T19:43:01.300Z,87.99
2023-01-11T19:45:30.135Z,87.96
2023-01-11T19:47:59.041Z,88.15
2023-01-11T19:50:30.859Z,87.94
2023-01-11T19:53:04.030Z,88.06
2023-01-11T19:55:33.810Z,88.24
2023-01-11T19:58:08.709Z,87.67
2023-01-11T20:00:38.286Z,87.52
2023-01-11T20:03:07.411Z,87.09
2023-01-11T20:05:36.578Z,87.22
2023-01-11T20:08:08.422Z,87.09
2023-01-11T20:10:48.291Z,87.43
2023-01-11T20:13:17.469Z,87.32
2023-01-11T20:15:47.615Z,87.21
2023-01-11T20:18:17.316Z,87.55
2023-01-11T20:20:56.848Z,87.62
2023-01-11T20:23:27.504Z,87.84
2023-01-11T20:26:04.247Z,88.17
2023-01-11T20:28:35.744Z,88.10
2023-01-11T20:31:07.256Z,87.93
2023-01-11T20:33:36.676Z,87.96
2023-01-11T20:36:15.703Z,87.82
2023-01-11T20:38:46.234Z,87.63
2023-01-11T20:41:45.932Z,87.69
2023-01-11T20:44:27.450Z,87.72
2023-01-11T20:47:01.458Z,87.83
2023-01-11T20:49:30.596Z,87.77
2023-01-11T20:51:59.630Z,87.96
2023-01-11T20:54:28.485Z,88.09
2023-01-11T20:57:02.769Z,88.17
2023-01-11T20:59:35.253Z,88.29
2023-01-11T21:02:07.706Z,88.40
2023-01-11T21:04:37.520Z,88.39
2023-01-11T21:07:07.165Z,88.68
2023-01-11T21:09:36.157Z,88.66
2023-01-11T21:12:05.469Z,88.64
2023-01-11T21:14:34.422Z,88.89
2023-01-11T21:17:03.603Z,89.12
2023-01-11T21:19:32.857Z,89.04
2023-01-11T21:22:01.852Z,89.16
2023-01-11T21:24:30.874Z,89.00
2023-01-11T21:26:59.896Z,88.96
2023-01-11T21:29:29.098Z,88.65
2023-01-11T21:31:57.775Z,88.78
2023-01-11T21:34:30.158Z,88.54
2023-01-11T21:37:00.231Z,88.18
2023-01-11T21:39:29.305Z,87.95
2023-01-11T21:42:01.661Z,87.57
2023-01-11T21:44:34.078Z,87.59
2023-01-11T21:47:07.027Z,87.79
2023-01-11T21:49:36.280Z,87.63
2023-01-11T21:53:44.409Z,87.63
2023-01-11T21:56:13.593Z,88.03
2023-01-11T21:58:42.570Z,88.15
2023-01-11T22:01:14.268Z,88.36
2023-01-11T22:03:43.507Z,88.16
2023-01-11T22:06:12.583Z,88.32
2023-01-11T22:08:44.904Z,88.69
2023-01-11T22:11:18.452Z,88.95
2023-01-11T22:13:47.232Z,88.83
2023-01-11T22:16:18.303Z,88.94
2023-01-11T22:18:47.162Z,88.84
2023-01-11T22:21:19.196Z,88.86
2023-01-11T22:23:48.837Z,89.21
2023-01-11T22:26:19.071Z,89.07
2023-01-11T22:29:07.164Z,89.02
2023-01-11T22:31:36.035Z,89.10
2023-01-11T22:34:04.834Z,89.20
2023-01-11T22:36:33.553Z,89.34
2023-01-11T22:39:02.603Z,88.99
2023-01-11T22:41:31.438Z,89.40
2023-01-11T22:44:00.315Z,89.29
2023-01-11T22:46:29.227Z,89.41
2023-01-11T22:48:59.171Z,89.34
2023-01-11T22:51:28.792Z,89.48
2023-01-11T22:57:29.873Z,89.66
2023-01-11T22:59:58.990Z,89.28
2023-01-11T23:02:27.830Z,89.44
2023-01-11T23:04:56.753Z,89.36
2023-01-11T23:07:25.758Z,89.44
2023-01-11T23:09:58.021Z,89.61
2023-01-11T23:12:45.347Z,89.79
2023-01-11T23:15:14.076Z,89.94
2023-01-11T23:17:42.957Z,89.89
2023-01-11T23:20:12.467Z,89.79
2023-01-11T23:22:41.412Z,90.00
2023-01-11T23:25:10.577Z,90.20
2023-01-11T23:27:39.985Z,90.11
2023-01-11T23:30:09.739Z,90.18
2023-01-11T23:32:38.581Z,90.48
2023-01-11T23:35:09.276Z,90.51
2023-01-11T23:37:38.036Z,90.75
2023-01-11T23:40:08.057Z,91.02
2023-01-11T23:42:38.587Z,91.39
2023-01-11T23:45:08.235Z,91.26
2023-01-11T23:47:37.185Z,91.47
2023-01-11T23:50:06.525Z,91.53
2023-01-11T23:52:35.516Z,91.28
2023-01-11T23:55:04.622Z,91.39
2023-01-11T23:57:33.415Z,91.35
